createdAt,value
2018-09-11T04:00:36.967Z,0.00
2018-09-11T04:01:36.961Z,0.00
2018-09-11T04:02:36.954Z,0.00
2018-09-11T04:03:36.933Z,0.00
2018-09-11T04:04:36.907Z,0.00
2018-09-11T04:05:37.010Z,0.00
2018-09-11T04:06:36.902Z,0.00
2018-09-11T04:07:36.883Z,0.00
2018-09-11T04:08:36.876Z,0.00
2018-09-11T04:09:36.853Z,0.00
2018-09-11T04:10:36.843Z,0.00
2018-09-11T04:11:36.839Z,0.00
2018-09-11T04:12:36.816Z,0.00
2018-09-11T04:13:36.818Z,0.00
2018-09-11T04:14:36.800Z,0.00
2018-09-11T04:15:36.782Z,0.00
2018-09-11T04:16:36.777Z,0.00
2018-09-11T04:17:36.772Z,0.00
2018-09-11T04:18:36.763Z,0.00
2018-09-11T04:19:36.737Z,0.00
2018-09-11T04:20:36.724Z,0.00
2018-09-11T04:21:36.716Z,0.00
2018-09-11T04:22:36.707Z,0.00
2018-09-11T04:23:36.701Z,4.00
2018-09-11T04:24:36.682Z,4.00
2018-09-11T04:25:36.780Z,0.00
2018-09-11T04:26:36.660Z,4.00
2018-09-11T04:27:36.649Z,0.00
2018-09-11T04:28:36.650Z,4.00
2018-09-11T04:29:36.624Z,8.00
2018-09-11T04:30:36.613Z,8.00
2018-09-11T04:31:36.603Z,8.00
2018-09-11T04:32:36.598Z,16.00
2018-09-11T04:33:36.593Z,16.00
2018-09-11T04:34:36.567Z,16.00
2018-09-11T04:35:36.557Z,20.00
2018-09-11T04:36:36.546Z,20.00
2018-09-11T04:37:36.531Z,24.00
2018-09-11T04:38:36.539Z,20.00
2018-09-11T04:39:36.512Z,28.00
2018-09-11T04:40:36.498Z,32.00
2018-09-11T04:41:36.491Z,40.00
2018-09-11T04:42:36.480Z,48.00
2018-09-11T04:43:36.477Z,44.00
2018-09-11T04:44:36.457Z,56.00
2018-09-11T04:45:36.444Z,60.00
2018-09-11T04:46:36.431Z,72.00
2018-09-11T04:47:36.426Z,76.00
2018-09-11T04:48:36.426Z,88.00
2018-09-11T04:49:36.402Z,108.00
2018-09-11T04:50:36.390Z,120.00
2018-09-11T04:51:36.373Z,140.00
2018-09-11T04:52:36.363Z,152.00
2018-09-11T04:53:36.366Z,172.00
2018-09-11T04:54:36.339Z,180.00
2018-09-11T04:55:36.334Z,196.00
2018-09-11T04:56:36.317Z,216.00
2018-09-11T04:57:36.306Z,224.00
2018-09-11T04:58:36.340Z,244.00
2018-09-11T04:59:36.292Z,260.00
2018-09-11T05:00:36.271Z,292.00
2018-09-11T05:01:36.261Z,316.00
2018-09-11T05:02:36.281Z,360.00
2018-09-11T05:03:36.249Z,408.00
2018-09-11T05:04:36.231Z,460.00
2018-09-11T05:05:36.216Z,504.00
2018-09-11T05:06:36.204Z,548.00
2018-09-11T05:07:36.204Z,588.00
2018-09-11T05:08:36.197Z,624.00
2018-09-11T05:09:36.177Z,640.00
2018-09-11T05:10:36.162Z,672.00
2018-09-11T05:11:36.150Z,692.00
2018-09-11T05:12:36.136Z,708.00
2018-09-11T05:13:36.142Z,728.00
2018-09-11T05:14:36.120Z,712.00
2018-09-11T05:15:36.102Z,688.00
2018-09-11T05:16:36.095Z,676.00
2018-09-11T05:17:36.080Z,640.00
2018-09-11T05:18:36.077Z,620.00
2018-09-11T05:19:36.057Z,616.00
2018-09-11T05:20:36.050Z,632.00
2018-09-11T05:21:36.045Z,652.00
2018-09-11T05:22:36.024Z,672.00
2018-09-11T05:23:36.026Z,700.00
2018-09-11T05:24:36.002Z,720.00
2018-09-11T05:25:35.993Z,728.00
2018-09-11T05:26:35.977Z,732.00
2018-09-11T05:27:36.011Z,736.00
2018-09-11T05:28:35.990Z,748.00
2018-09-11T05:29:35.945Z,760.00
2018-09-11T05:30:35.933Z,772.00
2018-09-11T05:31:35.922Z,800.00
2018-09-11T05:32:35.915Z,844.00
2018-09-11T05:33:35.904Z,884.00
2018-09-11T05:34:35.902Z,912.00
2018-09-11T05:35:35.879Z,924.00
2018-09-11T05:36:35.871Z,948.00
2018-09-11T05:37:35.854Z,972.00
2018-09-11T05:38:35.843Z,988.00
2018-09-11T05:39:35.841Z,1024.00
2018-09-11T05:40:35.837Z,1072.00
2018-09-11T05:41:35.816Z,1104.00
2018-09-11T05:42:35.797Z,1108.00
2018-09-11T05:43:35.786Z,1124.00
2018-09-11T05:44:35.785Z,1132.00
2018-09-11T05:45:35.763Z,1136.00
2018-09-11T05:46:35.756Z,1176.00
2018-09-11T05:47:35.740Z,1200.00
2018-09-11T05:48:35.730Z,1224.00
2018-09-11T05:49:35.734Z,1228.00
2018-09-11T05:50:35.712Z,1236.00
2018-09-11T05:51:35.697Z,1296.00
2018-09-11T05:52:35.725Z,1396.00
2018-09-11T05:53:35.672Z,1492.00
2018-09-11T05:54:35.673Z,1620.00
2018-09-11T05:55:35.649Z,1708.00
2018-09-11T05:56:35.639Z,1832.00
2018-09-11T05:57:35.628Z,1892.00
2018-09-11T05:58:35.619Z,1936.00
2018-09-11T05:59:35.618Z,2004.00
2018-09-11T06:00:35.592Z,1992.00
2018-09-11T06:01:35.584Z,2008.00
2018-09-11T06:02:35.572Z,2016.00
2018-09-11T06:03:35.561Z,2024.00
2018-09-11T06:04:35.559Z,2092.00
2018-09-11T06:05:35.563Z,2084.00
2018-09-11T06:06:35.524Z,2036.00
2018-09-11T06:07:35.517Z,1996.00
2018-09-11T06:08:35.501Z,1968.00
2018-09-11T06:09:35.505Z,1944.00
2018-09-11T06:10:35.480Z,1928.00
2018-09-11T06:11:35.472Z,1948.00
2018-09-11T06:12:35.456Z,2012.00
2018-09-11T06:13:35.453Z,2056.00
2018-09-11T06:14:35.449Z,2104.00
2018-09-11T06:15:35.422Z,2144.00
2018-09-11T06:16:35.412Z,2204.00
2018-09-11T06:17:35.404Z,2228.00
2018-09-11T06:18:35.389Z,2252.00
2018-09-11T06:19:35.388Z,2288.00
2018-09-11T06:20:35.367Z,2328.00
2018-09-11T06:21:35.353Z,2392.00
2018-09-11T06:22:35.342Z,2452.00
2018-09-11T06:23:35.332Z,2548.00
2018-09-11T06:24:35.335Z,2648.00
2018-09-11T06:25:35.320Z,2740.00
2018-09-11T06:26:35.298Z,2804.00
2018-09-11T06:27:35.288Z,2856.00
2018-09-11T06:28:35.275Z,2848.00
2018-09-11T06:29:35.284Z,2852.00
2018-09-11T06:30:35.254Z,2868.00
2018-09-11T06:31:35.240Z,2892.00
2018-09-11T06:32:35.273Z,2872.00
2018-09-11T06:33:35.229Z,2824.00
2018-09-11T06:34:35.248Z,2812.00
2018-09-11T06:35:35.274Z,2824.00
2018-09-11T06:36:35.187Z,2904.00
2018-09-11T06:37:35.176Z,2940.00
2018-09-11T06:38:35.161Z,2952.00
2018-09-11T06:39:35.164Z,3056.00
2018-09-11T06:40:35.172Z,3176.00
2018-09-11T06:41:35.130Z,3372.00
2018-09-11T06:42:35.121Z,3612.00
2018-09-11T06:43:35.115Z,4420.00
2018-09-11T06:44:35.162Z,5192.00
2018-09-11T06:45:35.083Z,5676.00
2018-09-11T06:46:35.072Z,6288.00
2018-09-11T06:47:35.060Z,6376.00
2018-09-11T06:48:35.053Z,6600.00
2018-09-11T06:49:35.055Z,6680.00
2018-09-11T06:50:35.032Z,6732.00
2018-09-11T06:51:35.015Z,6848.00
2018-09-11T06:52:35.006Z,6964.00
2018-09-11T06:53:34.993Z,7652.00
2018-09-11T06:54:35.013Z,7172.00
2018-09-11T06:55:34.974Z,7040.00
2018-09-11T06:56:34.959Z,7156.00
2018-09-11T06:57:34.965Z,6928.00
2018-09-11T06:58:34.937Z,7044.00
2018-09-11T06:59:34.939Z,6988.00
2018-09-11T07:00:34.977Z,5672.00
2018-09-11T07:01:34.909Z,7044.00
2018-09-11T07:02:34.893Z,7020.00
2018-09-11T07:03:34.882Z,7744.00
2018-09-11T07:04:34.878Z,7404.00
2018-09-11T07:05:34.859Z,7764.00
2018-09-11T07:06:34.846Z,8140.00
2018-09-11T07:07:34.833Z,8348.00
2018-09-11T07:08:34.832Z,8468.00
2018-09-11T07:09:34.822Z,8740.00
2018-09-11T07:10:34.799Z,8012.00
2018-09-11T07:11:34.793Z,7404.00
2018-09-11T07:12:34.779Z,7732.00
2018-09-11T07:13:34.769Z,7692.00
2018-09-11T07:14:34.849Z,6760.00
2018-09-11T07:15:34.744Z,6960.00
2018-09-11T07:16:34.735Z,7476.00
2018-09-11T07:17:34.759Z,6708.00
2018-09-11T07:18:34.712Z,6304.00
2018-09-11T07:19:34.744Z,5460.00
2018-09-11T07:20:34.691Z,6956.00
2018-09-11T07:21:34.677Z,6248.00
2018-09-11T07:22:34.673Z,10136.00
2018-09-11T07:23:34.658Z,10508.00
2018-09-11T07:24:34.664Z,10220.00
2018-09-11T07:25:34.636Z,9416.00
2018-09-11T07:26:34.625Z,8240.00
2018-09-11T07:27:34.609Z,7000.00
2018-09-11T07:28:34.602Z,7728.00
2018-09-11T07:29:34.590Z,8460.00
2018-09-11T07:30:34.598Z,7828.00
2018-09-11T07:31:34.564Z,5360.00
2018-09-11T07:32:34.580Z,5240.00
2018-09-11T07:33:34.543Z,6852.00
2018-09-11T07:34:34.538Z,5464.00
2018-09-11T07:35:34.538Z,5316.00
2018-09-11T07:36:34.508Z,4820.00
2018-09-11T07:37:34.500Z,5032.00
2018-09-11T07:38:34.487Z,7088.00
2018-09-11T07:39:34.474Z,7368.00
2018-09-11T07:40:34.483Z,8528.00
2018-09-11T07:41:34.453Z,6800.00
2018-09-11T07:42:34.441Z,5564.00
2018-09-11T07:43:34.429Z,5836.00
2018-09-11T07:44:34.419Z,7536.00
2018-09-11T07:45:34.544Z,8428.00
2018-09-11T07:46:34.394Z,9092.00
2018-09-11T07:47:34.398Z,10944.00
2018-09-11T07:48:34.372Z,9588.00
2018-09-11T07:49:34.364Z,11676.00
2018-09-11T07:50:34.364Z,10324.00
2018-09-11T07:51:34.339Z,10688.00
2018-09-11T07:52:34.392Z,8624.00
2018-09-11T07:53:34.320Z,8780.00
2018-09-11T07:54:34.305Z,7432.00
2018-09-11T07:55:34.309Z,8152.00
2018-09-11T07:56:34.288Z,9560.00
2018-09-11T07:57:34.297Z,10312.00
2018-09-11T07:58:34.262Z,8640.00
2018-09-11T07:59:34.248Z,10512.00
2018-09-11T08:00:34.273Z,9732.00
2018-09-11T08:01:34.230Z,7308.00
2018-09-11T08:02:34.215Z,8016.00
2018-09-11T08:03:34.206Z,8220.00
2018-09-11T08:04:34.200Z,6468.00
2018-09-11T08:05:34.199Z,7620.00
2018-09-11T08:06:34.172Z,8056.00
2018-09-11T08:07:34.162Z,8896.00
2018-09-11T08:08:34.149Z,10056.00
2018-09-11T08:09:34.167Z,9932.00
2018-09-11T08:10:34.137Z,10880.00
2018-09-11T08:11:34.116Z,10740.00
2018-09-11T08:12:34.113Z,11260.00
2018-09-11T08:13:34.097Z,12784.00
2018-09-11T08:14:34.080Z,14336.00
2018-09-11T08:15:34.088Z,15360.00
2018-09-11T08:16:34.092Z,13952.00
2018-09-11T08:17:34.049Z,10856.00
2018-09-11T08:18:34.035Z,10908.00
2018-09-11T08:19:34.026Z,12076.00
2018-09-11T08:20:34.033Z,11716.00
2018-09-11T08:21:34.006Z,12088.00
2018-09-11T08:22:33.993Z,13056.00
2018-09-11T08:23:33.981Z,13120.00
2018-09-11T08:24:33.969Z,13376.00
2018-09-11T08:25:33.969Z,14528.00
2018-09-11T08:26:33.948Z,15040.00
2018-09-11T08:27:33.937Z,16064.00
2018-09-11T08:28:33.924Z,16896.00
2018-09-11T08:29:33.915Z,17824.00
2018-09-11T08:30:33.911Z,15584.00
2018-09-11T08:31:33.898Z,9308.00
2018-09-11T08:32:33.882Z,13440.00
2018-09-11T08:33:33.868Z,36704.00
2018-09-11T08:34:33.857Z,49824.00
2018-09-11T08:35:33.857Z,55200.00
2018-09-11T08:36:33.835Z,53952.00
2018-09-11T08:37:33.824Z,52864.00
2018-09-11T08:38:33.812Z,56256.00
2018-09-11T08:39:33.811Z,52640.00
2018-09-11T08:40:33.806Z,56800.00
2018-09-11T08:41:33.780Z,51776.00
2018-09-11T08:42:33.774Z,50816.00
2018-09-11T08:43:33.759Z,47456.00
2018-09-11T08:44:33.749Z,48064.00
2018-09-11T08:45:33.750Z,51808.00
2018-09-11T08:46:33.739Z,48576.00
2018-09-11T08:47:33.711Z,46592.00
2018-09-11T08:48:33.700Z,44448.00
2018-09-11T08:49:33.692Z,26912.00
2018-09-11T08:50:33.695Z,15072.00
2018-09-11T08:51:33.667Z,15648.00
2018-09-11T08:52:33.718Z,22208.00
2018-09-11T08:53:33.646Z,20128.00
2018-09-11T08:54:33.633Z,23744.00
2018-09-11T08:55:33.635Z,16928.00
2018-09-11T08:56:33.628Z,10416.00
2018-09-11T08:57:33.601Z,23936.00
2018-09-11T08:58:33.652Z,21824.00
2018-09-11T08:59:33.578Z,21568.00
2018-09-11T09:00:33.578Z,20864.00
2018-09-11T09:01:33.555Z,22848.00
2018-09-11T09:02:33.544Z,21504.00
2018-09-11T09:03:33.535Z,23008.00
2018-09-11T09:04:33.522Z,29280.00
2018-09-11T09:05:33.524Z,36800.00
2018-09-11T09:06:33.499Z,37696.00
2018-09-11T09:07:33.489Z,36704.00
2018-09-11T09:08:33.478Z,36640.00
2018-09-11T09:09:33.468Z,36864.00
2018-09-11T09:10:33.471Z,33600.00
2018-09-11T09:11:33.447Z,22496.00
2018-09-11T09:12:33.436Z,15136.00
2018-09-11T09:13:33.422Z,12672.00
2018-09-11T09:14:33.412Z,9684.00
2018-09-11T09:15:33.442Z,10368.00
2018-09-11T09:16:33.393Z,10116.00
2018-09-11T09:17:33.378Z,8656.00
2018-09-11T09:18:33.366Z,9248.00
2018-09-11T09:19:33.353Z,9204.00
2018-09-11T09:20:33.354Z,9372.00
2018-09-11T09:21:33.330Z,9544.00
2018-09-11T09:22:33.324Z,8932.00
2018-09-11T09:23:33.310Z,9568.00
2018-09-11T09:24:33.299Z,8808.00
2018-09-11T09:25:33.301Z,9744.00
2018-09-11T09:26:33.275Z,9172.00
2018-09-11T09:27:33.373Z,8328.00
2018-09-11T09:28:33.253Z,9200.00
2018-09-11T09:29:33.242Z,9832.00
2018-09-11T09:30:33.243Z,9900.00
2018-09-11T09:31:33.234Z,10072.00
2018-09-11T09:32:33.211Z,9748.00
2018-09-11T09:33:33.199Z,9840.00
2018-09-11T09:34:33.187Z,10152.00
2018-09-11T09:35:33.175Z,10132.00
2018-09-11T09:36:33.192Z,9944.00
2018-09-11T09:37:33.154Z,10096.00
2018-09-11T09:38:33.140Z,9872.00
2018-09-11T09:39:33.135Z,9172.00
2018-09-11T09:40:33.119Z,7624.00
2018-09-11T09:41:33.125Z,7596.00
2018-09-11T09:42:33.096Z,6760.00
2018-09-11T09:43:33.086Z,6624.00
2018-09-11T09:44:33.075Z,6432.00
2018-09-11T09:45:33.063Z,6284.00
2018-09-11T09:46:33.067Z,6476.00
2018-09-11T09:47:33.044Z,5980.00
2018-09-11T09:48:33.033Z,5940.00
2018-09-11T09:49:33.018Z,5736.00
2018-09-11T09:50:33.007Z,5636.00
2018-09-11T09:51:33.009Z,5776.00
2018-09-11T09:52:32.983Z,5848.00
2018-09-11T09:53:32.973Z,5888.00
2018-09-11T09:54:32.965Z,6128.00
2018-09-11T09:55:32.952Z,6424.00
2018-09-11T09:56:32.953Z,6944.00
2018-09-11T09:57:32.931Z,6884.00
2018-09-11T09:58:32.920Z,6728.00
2018-09-11T09:59:32.911Z,6672.00
2018-09-11T10:00:32.928Z,6760.00
2018-09-11T10:01:32.894Z,7048.00
2018-09-11T10:02:32.878Z,7028.00
2018-09-11T10:03:32.871Z,6940.00
2018-09-11T10:04:32.850Z,6768.00
2018-09-11T10:05:32.840Z,6808.00
2018-09-11T10:06:32.841Z,6480.00
2018-09-11T10:07:32.822Z,6692.00
2018-09-11T10:08:32.807Z,6548.00
2018-09-11T10:09:32.794Z,6524.00
2018-09-11T10:10:32.791Z,6448.00
2018-09-11T10:11:32.781Z,6404.00
2018-09-11T10:12:32.762Z,6316.00
2018-09-11T10:13:32.749Z,6360.00
2018-09-11T10:14:32.739Z,6440.00
2018-09-11T10:15:32.732Z,6428.00
2018-09-11T10:16:32.728Z,6312.00
2018-09-11T10:17:32.761Z,6368.00
2018-09-11T10:18:32.693Z,6228.00
2018-09-11T10:19:32.683Z,6220.00
2018-09-11T10:20:32.673Z,6112.00
2018-09-11T10:21:32.677Z,6008.00
2018-09-11T10:22:32.659Z,6028.00
2018-09-11T10:23:32.637Z,6000.00
2018-09-11T10:24:32.631Z,5900.00
2018-09-11T10:25:32.619Z,5732.00
2018-09-11T10:26:32.627Z,5496.00
2018-09-11T10:27:32.598Z,5492.00
2018-09-11T10:28:32.583Z,5636.00
2018-09-11T10:29:32.571Z,5360.00
2018-09-11T10:30:32.563Z,5308.00
2018-09-11T10:31:32.562Z,5164.00
2018-09-11T10:32:32.541Z,5028.00
2018-09-11T10:33:32.525Z,4964.00
2018-09-11T10:34:32.516Z,4900.00
2018-09-11T10:35:32.514Z,4844.00
2018-09-11T10:36:32.504Z,4876.00
2018-09-11T10:37:32.487Z,4884.00
2018-09-11T10:38:32.481Z,4908.00
2018-09-11T10:39:32.586Z,4924.00
2018-09-11T10:40:32.450Z,4940.00
2018-09-11T10:41:32.449Z,4992.00
2018-09-11T10:42:32.425Z,5004.00
2018-09-11T10:43:32.419Z,5196.00
2018-09-11T10:44:32.405Z,5176.00
2018-09-11T10:45:32.395Z,5136.00
2018-09-11T10:46:32.392Z,5184.00
2018-09-11T10:47:32.370Z,5100.00
2018-09-11T10:48:32.360Z,5132.00
2018-09-11T10:49:32.349Z,5048.00
2018-09-11T10:50:32.336Z,4908.00
2018-09-11T10:51:32.338Z,5020.00
2018-09-11T10:52:32.313Z,5040.00
2018-09-11T10:53:32.311Z,5104.00
2018-09-11T10:54:32.293Z,5116.00
2018-09-11T10:55:32.281Z,5076.00
2018-09-11T10:56:32.284Z,5056.00
2018-09-11T10:57:32.265Z,4852.00
2018-09-11T10:58:32.247Z,4944.00
2018-09-11T10:59:32.236Z,4980.00
2018-09-11T11:00:32.272Z,4992.00
2018-09-11T11:01:32.222Z,4960.00
2018-09-11T11:02:32.202Z,4940.00
2018-09-11T11:03:32.191Z,5028.00
2018-09-11T11:04:32.180Z,5000.00
2018-09-11T11:05:32.169Z,4988.00
2018-09-11T11:06:32.173Z,4936.00
2018-09-11T11:07:32.148Z,4828.00
2018-09-11T11:08:32.143Z,4840.00
2018-09-11T11:09:32.126Z,4748.00
2018-09-11T11:10:32.115Z,4756.00
2018-09-11T11:11:32.148Z,4788.00
2018-09-11T11:12:32.090Z,4640.00
2018-09-11T11:13:32.085Z,4708.00
2018-09-11T11:14:32.073Z,4700.00
2018-09-11T11:15:32.057Z,4692.00
2018-09-11T11:16:32.061Z,4604.00
2018-09-11T11:17:32.034Z,4652.00
2018-09-11T11:18:32.023Z,4584.00
2018-09-11T11:19:32.013Z,4580.00
2018-09-11T11:20:32.000Z,4564.00
2018-09-11T11:21:32.000Z,4552.00
2018-09-11T11:22:31.980Z,4500.00
2018-09-11T11:23:31.969Z,4392.00
2018-09-11T11:24:31.956Z,4304.00
2018-09-11T11:25:31.946Z,4368.00
2018-09-11T11:26:31.948Z,4260.00
2018-09-11T11:27:31.925Z,4276.00
2018-09-11T11:28:31.912Z,4116.00
2018-09-11T11:29:31.900Z,4036.00
2018-09-11T11:30:31.888Z,4036.00
2018-09-11T11:31:31.893Z,4008.00
2018-09-11T11:32:31.867Z,4044.00
2018-09-11T11:33:31.858Z,4044.00
2018-09-11T11:34:31.844Z,4104.00
2018-09-11T11:35:31.835Z,4280.00
2018-09-11T11:36:32.004Z,4116.00
2018-09-11T11:37:31.824Z,4028.00
2018-09-11T11:38:31.799Z,3924.00
2018-09-11T11:39:31.793Z,3904.00
2018-09-11T11:40:31.778Z,3912.00
2018-09-11T11:41:31.770Z,3932.00
2018-09-11T11:42:31.768Z,3960.00
2018-09-11T11:43:31.744Z,3916.00
2018-09-11T11:44:31.731Z,3924.00
2018-09-11T11:45:31.721Z,3880.00
2018-09-11T11:46:31.710Z,3864.00
2018-09-11T11:47:31.712Z,3848.00
2018-09-11T11:48:31.691Z,3804.00
2018-09-11T11:49:31.700Z,3784.00
2018-09-11T11:50:31.664Z,3772.00
2018-09-11T11:51:31.654Z,3816.00
2018-09-11T11:52:31.654Z,3804.00
2018-09-11T11:53:31.631Z,3804.00
2018-09-11T11:54:31.620Z,3780.00
2018-09-11T11:55:31.674Z,3744.00
2018-09-11T11:56:31.597Z,3760.00
2018-09-11T11:57:31.598Z,3768.00
2018-09-11T11:58:31.578Z,3776.00
2018-09-11T11:59:31.565Z,3832.00
2018-09-11T12:00:31.553Z,3912.00
2018-09-11T12:01:31.640Z,3936.00
2018-09-11T12:02:31.542Z,4008.00
2018-09-11T12:03:31.518Z,4000.00
2018-09-11T12:04:31.511Z,4004.00
2018-09-11T12:05:31.498Z,4072.00
2018-09-11T12:06:31.486Z,4076.00
2018-09-11T12:07:31.490Z,3964.00
2018-09-11T12:08:31.465Z,4040.00
2018-09-11T12:09:31.455Z,3960.00
2018-09-11T12:10:31.444Z,4024.00
2018-09-11T12:11:31.435Z,4056.00
2018-09-11T12:12:31.431Z,4024.00
2018-09-11T12:13:31.407Z,4064.00
2018-09-11T12:14:31.396Z,4048.00
2018-09-11T12:15:31.387Z,4072.00
2018-09-11T12:16:31.375Z,4104.00
2018-09-11T12:17:31.373Z,4048.00
2018-09-11T12:18:31.354Z,4008.00
2018-09-11T12:19:31.341Z,3952.00
2018-09-11T12:20:31.331Z,3804.00
2018-09-11T12:21:31.328Z,3736.00
2018-09-11T12:22:31.321Z,3660.00
2018-09-11T12:23:31.298Z,3560.00
2018-09-11T12:24:31.288Z,3560.00
2018-09-11T12:25:31.315Z,3444.00
2018-09-11T12:26:31.264Z,3376.00
2018-09-11T12:27:31.266Z,3300.00
2018-09-11T12:28:31.246Z,3168.00
2018-09-11T12:29:31.233Z,3032.00
2018-09-11T12:30:31.220Z,2972.00
2018-09-11T12:31:31.207Z,2800.00
2018-09-11T12:32:31.209Z,2680.00
2018-09-11T12:33:31.191Z,2576.00
2018-09-11T12:34:31.186Z,2464.00
2018-09-11T12:35:31.164Z,2404.00
2018-09-11T12:36:31.156Z,2336.00
2018-09-11T12:37:31.158Z,2328.00
2018-09-11T12:38:31.142Z,2260.00
2018-09-11T12:39:31.121Z,2268.00
2018-09-11T12:40:31.107Z,2244.00
2018-09-11T12:41:31.098Z,2240.00
2018-09-11T12:42:31.101Z,2268.00
2018-09-11T12:43:31.073Z,2272.00
2018-09-11T12:44:31.062Z,2292.00
2018-09-11T12:45:31.054Z,2272.00
2018-09-11T12:46:31.611Z,2232.00
2018-09-11T12:47:31.476Z,2184.00
2018-09-11T12:48:31.122Z,2076.00
2018-09-11T12:49:31.006Z,2152.00
2018-09-11T12:50:30.998Z,2144.00
2018-09-11T12:51:30.983Z,2172.00
2018-09-11T12:52:31.059Z,2196.00
2018-09-11T12:53:30.967Z,2116.00
2018-09-11T12:54:30.951Z,2124.00
2018-09-11T12:55:30.940Z,2084.00
2018-09-11T12:56:30.929Z,2036.00
2018-09-11T12:57:30.930Z,2084.00
2018-09-11T12:58:30.909Z,2072.00
2018-09-11T12:59:30.896Z,2112.00
2018-09-11T13:00:30.884Z,2100.00
2018-09-11T13:01:30.875Z,2068.00
2018-09-11T13:02:30.920Z,2028.00
2018-09-11T13:03:30.851Z,1972.00
2018-09-11T13:04:30.839Z,1960.00
2018-09-11T13:05:30.935Z,1868.00
2018-09-11T13:06:30.818Z,1852.00
2018-09-11T13:07:30.818Z,1848.00
2018-09-11T13:08:30.796Z,1816.00
2018-09-11T13:09:30.842Z,1848.00
2018-09-11T13:10:30.774Z,1844.00
2018-09-11T13:11:30.763Z,1880.00
2018-09-11T13:12:30.766Z,1868.00
2018-09-11T13:13:30.741Z,1784.00
2018-09-11T13:14:30.731Z,1752.00
2018-09-11T13:15:30.717Z,1748.00
2018-09-11T13:16:30.705Z,1696.00
2018-09-11T13:17:30.708Z,1644.00
2018-09-11T13:18:30.685Z,1604.00
2018-09-11T13:19:30.672Z,1544.00
2018-09-11T13:20:30.663Z,1540.00
2018-09-11T13:21:30.651Z,1536.00
2018-09-11T13:22:30.654Z,1536.00
2018-09-11T13:23:30.629Z,1488.00
2018-09-11T13:24:30.618Z,1448.00
2018-09-11T13:25:30.639Z,1488.00
2018-09-11T13:26:30.600Z,1500.00
2018-09-11T13:27:30.599Z,1532.00
2018-09-11T13:28:30.577Z,1564.00
2018-09-11T13:29:30.563Z,1540.00
2018-09-11T13:30:30.552Z,1460.00
2018-09-11T13:31:30.542Z,1524.00
2018-09-11T13:32:30.540Z,1556.00
2018-09-11T13:33:30.527Z,1524.00
2018-09-11T13:34:30.510Z,1544.00
2018-09-11T13:35:30.497Z,1616.00
2018-09-11T13:36:30.487Z,1516.00
2018-09-11T13:37:30.485Z,1512.00
2018-09-11T13:38:30.460Z,1484.00
2018-09-11T13:39:30.450Z,1480.00
2018-09-11T13:40:30.438Z,1452.00
2018-09-11T13:41:30.429Z,1444.00
2018-09-11T13:42:30.443Z,1444.00
2018-09-11T13:43:30.412Z,1428.00
2018-09-11T13:44:30.397Z,1364.00
2018-09-11T13:45:30.386Z,1360.00
2018-09-11T13:46:30.373Z,1340.00
2018-09-11T13:47:30.496Z,1324.00
2018-09-11T13:48:30.361Z,1264.00
2018-09-11T13:49:30.341Z,1264.00
2018-09-11T13:50:30.327Z,1252.00
2018-09-11T13:51:30.317Z,1236.00
2018-09-11T13:52:30.307Z,1196.00
2018-09-11T13:53:30.303Z,1176.00
2018-09-11T13:54:30.283Z,1156.00
2018-09-11T13:55:30.273Z,1132.00
2018-09-11T13:56:30.260Z,1168.00
2018-09-11T13:57:30.255Z,1168.00
2018-09-11T13:58:30.254Z,1156.00
2018-09-11T13:59:30.228Z,1124.00
2018-09-11T14:00:30.219Z,1096.00
2018-09-11T14:01:30.213Z,1060.00
2018-09-11T14:02:30.239Z,1040.00
2018-09-11T14:03:30.198Z,1008.00
2018-09-11T14:04:30.172Z,988.00
2018-09-11T14:05:30.164Z,992.00
2018-09-11T14:06:30.152Z,948.00
2018-09-11T14:07:30.146Z,932.00
2018-09-11T14:08:30.197Z,924.00
2018-09-11T14:09:30.119Z,912.00
2018-09-11T14:10:30.107Z,872.00
2018-09-11T14:11:30.095Z,860.00
2018-09-11T14:12:30.083Z,860.00
2018-09-11T14:13:30.083Z,844.00
2018-09-11T14:14:30.063Z,848.00
2018-09-11T14:15:30.054Z,840.00
2018-09-11T14:16:30.037Z,840.00
2018-09-11T14:17:30.030Z,836.00
2018-09-11T14:18:30.026Z,820.00
2018-09-11T14:19:30.003Z,804.00
2018-09-11T14:20:29.999Z,800.00
2018-09-11T14:21:29.983Z,796.00
2018-09-11T14:22:29.978Z,776.00
2018-09-11T14:23:29.970Z,804.00
2018-09-11T14:24:29.951Z,800.00
2018-09-11T14:25:29.940Z,788.00
2018-09-11T14:26:29.931Z,788.00
2018-09-11T14:27:29.915Z,784.00
2018-09-11T14:28:29.916Z,784.00
2018-09-11T14:29:29.898Z,788.00
2018-09-11T14:30:29.886Z,784.00
2018-09-11T14:31:29.876Z,784.00
2018-09-11T14:32:29.862Z,784.00
2018-09-11T14:33:29.862Z,784.00
2018-09-11T14:34:29.869Z,776.00
2018-09-11T14:35:29.825Z,776.00
2018-09-11T14:36:29.814Z,764.00
2018-09-11T14:37:29.805Z,772.00
2018-09-11T14:38:29.805Z,776.00
2018-09-11T14:39:29.786Z,776.00
2018-09-11T14:40:29.770Z,780.00
2018-09-11T14:41:29.767Z,784.00
2018-09-11T14:42:29.754Z,784.00
2018-09-11T14:43:29.750Z,784.00
2018-09-11T14:44:29.728Z,784.00
2018-09-11T14:45:29.715Z,772.00
2018-09-11T14:46:29.836Z,780.00
2018-09-11T14:47:29.703Z,776.00
2018-09-11T14:48:29.696Z,780.00
2018-09-11T14:49:29.671Z,772.00
2018-09-11T14:50:29.660Z,752.00
2018-09-11T14:51:29.649Z,748.00
2018-09-11T14:52:29.677Z,744.00
2018-09-11T14:53:29.636Z,740.00
2018-09-11T14:54:29.616Z,732.00
2018-09-11T14:55:29.605Z,732.00
2018-09-11T14:56:29.591Z,724.00
2018-09-11T14:57:29.696Z,724.00
2018-09-11T14:58:29.580Z,816.00
2018-09-11T14:59:29.558Z,796.00
2018-09-11T15:00:29.549Z,784.00
2018-09-11T15:01:29.539Z,780.00
2018-09-11T15:02:29.526Z,768.00
2018-09-11T15:03:29.528Z,760.00
2018-09-11T15:04:29.505Z,760.00
2018-09-11T15:05:29.492Z,756.00
2018-09-11T15:06:29.483Z,752.00
2018-09-11T15:07:29.470Z,744.00
2018-09-11T15:08:29.472Z,744.00
2018-09-11T15:09:29.447Z,688.00
2018-09-11T15:10:29.439Z,684.00
2018-09-11T15:11:29.426Z,676.00
2018-09-11T15:12:29.415Z,680.00
2018-09-11T15:13:29.413Z,680.00
2018-09-11T15:14:29.392Z,672.00
2018-09-11T15:15:29.380Z,712.00
2018-09-11T15:16:29.375Z,676.00
2018-09-11T15:17:29.360Z,672.00
2018-09-11T15:18:29.357Z,668.00
2018-09-11T15:19:29.339Z,664.00
2018-09-11T15:20:29.324Z,660.00
2018-09-11T15:21:29.317Z,652.00
2018-09-11T15:22:29.365Z,652.00
2018-09-11T15:23:29.307Z,656.00
2018-09-11T15:24:29.287Z,652.00
2018-09-11T15:25:29.269Z,652.00
2018-09-11T15:26:29.258Z,652.00
2018-09-11T15:27:29.245Z,656.00
2018-09-11T15:28:29.248Z,660.00
2018-09-11T15:29:29.225Z,660.00
2018-09-11T15:30:29.215Z,664.00
2018-09-11T15:31:29.201Z,668.00
2018-09-11T15:32:29.193Z,668.00
2018-09-11T15:33:29.192Z,668.00
2018-09-11T15:34:29.169Z,652.00
2018-09-11T15:35:29.157Z,660.00
2018-09-11T15:36:29.150Z,660.00
2018-09-11T15:37:29.142Z,660.00
2018-09-11T15:38:29.133Z,648.00
2018-09-11T15:39:29.114Z,656.00
2018-09-11T15:40:29.103Z,652.00
2018-09-11T15:41:29.092Z,664.00
2018-09-11T15:42:29.082Z,680.00
2018-09-11T15:43:29.079Z,680.00
2018-09-11T15:44:29.062Z,680.00
2018-09-11T15:45:29.048Z,676.00
2018-09-11T15:46:29.036Z,676.00
2018-09-11T15:47:29.025Z,676.00
2018-09-11T15:48:29.039Z,672.00
2018-09-11T15:49:29.001Z,668.00
2018-09-11T15:50:28.992Z,664.00
2018-09-11T15:51:28.978Z,676.00
2018-09-11T15:52:28.972Z,656.00
2018-09-11T15:53:28.958Z,648.00
2018-09-11T15:54:28.959Z,640.00
2018-09-11T15:55:28.935Z,604.00
2018-09-11T15:56:28.922Z,620.00
2018-09-11T15:57:28.914Z,620.00
2018-09-11T15:58:28.901Z,620.00
2018-09-11T15:59:28.905Z,632.00
2018-09-11T16:00:28.879Z,616.00
2018-09-11T16:01:28.868Z,616.00
2018-09-11T16:02:28.857Z,620.00
2018-09-11T16:03:28.846Z,628.00
2018-09-11T16:04:28.845Z,632.00
2018-09-11T16:05:28.822Z,640.00
2018-09-11T16:06:28.814Z,648.00
2018-09-11T16:07:28.807Z,652.00
2018-09-11T16:08:28.789Z,664.00
2018-09-11T16:09:28.792Z,660.00
2018-09-11T16:10:28.775Z,664.00
2018-09-11T16:11:28.758Z,664.00
2018-09-11T16:12:28.747Z,652.00